createdAt,value
2022-11-21T06:28:36.047Z,-5.07
2022-11-21T06:31:07.803Z,-5.05
2022-11-21T06:33:35.457Z,-4.99
2022-11-21T06:36:05.484Z,-4.89
2022-11-21T06:38:33.247Z,-4.78
2022-11-21T06:41:00.500Z,-4.66
2022-11-21T06:43:28.676Z,-4.51
2022-11-21T06:45:58.913Z,-4.34
2022-11-21T06:48:26.270Z,-4.18
2022-11-21T06:50:53.502Z,-4.03
2022-11-21T06:53:20.857Z,-3.86
2022-11-21T06:55:47.963Z,-3.68
2022-11-21T06:58:15.260Z,-3.49
2022-11-21T07:00:42.411Z,-3.32
2022-11-21T07:03:10.986Z,-3.13
2022-11-21T07:05:38.371Z,-2.97
2022-11-21T07:08:11.929Z,-2.81
2022-11-21T07:10:57.292Z,-2.66
2022-11-21T07:13:28.687Z,-2.48
2022-11-21T07:16:02.381Z,-2.24
2022-11-21T07:18:30.379Z,-1.98
2022-11-21T07:21:00.983Z,-1.73
2022-11-21T07:23:28.646Z,-1.47
2022-11-21T07:25:56.101Z,-1.25
2022-11-21T07:28:24.065Z,-1.09
2022-11-21T07:30:51.275Z,-0.91
2022-11-21T07:33:18.361Z,-0.74
2022-11-21T07:35:45.811Z,-0.60
2022-11-21T07:38:13.463Z,-0.50
2022-11-21T07:40:40.686Z,-0.41
2022-11-21T07:43:10.969Z,-0.30
2022-11-21T07:45:38.707Z,-0.19
2022-11-21T07:48:08.938Z,-0.12
2022-11-21T07:50:36.931Z,0.03
2022-11-21T07:53:06.335Z,0.23
2022-11-21T07:55:39.061Z,0.42
2022-11-21T07:58:10.262Z,0.57
2022-11-21T08:00:39.825Z,0.74
2022-11-21T08:03:08.417Z,0.88
2022-11-21T08:05:40.696Z,1.02
2022-11-21T08:08:10.117Z,1.13
2022-11-21T08:10:40.823Z,1.25
2022-11-21T08:13:08.102Z,1.40
2022-11-21T08:15:35.395Z,1.57
2022-11-21T08:18:10.531Z,1.73
2022-11-21T08:20:37.716Z,1.86
2022-11-21T08:23:06.163Z,1.92
2022-11-21T08:25:33.707Z,1.87
2022-11-21T08:28:02.863Z,1.82
2022-11-21T08:30:30.708Z,1.88
2022-11-21T08:32:58.649Z,2.05
2022-11-21T08:35:26.084Z,2.27
2022-11-21T08:37:58.446Z,2.53
2022-11-21T08:40:26.397Z,2.79
2022-11-21T08:42:59.413Z,2.98
2022-11-21T08:45:26.679Z,3.18
2022-11-21T08:47:54.128Z,3.33
2022-11-21T08:50:23.351Z,3.40
2022-11-21T08:52:50.907Z,3.53
2022-11-21T08:55:18.561Z,3.61
2022-11-21T08:57:46.406Z,3.66
2022-11-21T09:00:16.779Z,3.57
2022-11-21T09:02:44.078Z,3.63
2022-11-21T09:05:12.626Z,3.60
2022-11-21T09:07:41.345Z,3.49
2022-11-21T09:10:10.995Z,3.46
2022-11-21T09:12:38.433Z,3.35
2022-11-21T09:15:23.826Z,3.23
2022-11-21T09:18:08.250Z,3.18
2022-11-21T09:20:40.164Z,3.10
2022-11-21T09:23:09.506Z,3.16
2022-11-21T09:25:36.982Z,3.25
2022-11-21T09:28:06.427Z,3.21
2022-11-21T09:30:34.119Z,3.23
2022-11-21T09:33:04.765Z,3.51
2022-11-21T09:35:32.372Z,3.83
2022-11-21T09:38:01.425Z,4.08
2022-11-21T09:40:30.379Z,4.15
2022-11-21T09:43:11.914Z,4.23
2022-11-21T09:45:47.235Z,4.03
2022-11-21T09:48:18.223Z,3.72
2022-11-21T09:50:53.820Z,3.35
2022-11-21T09:53:25.592Z,3.05
2022-11-21T09:55:58.167Z,3.03
2022-11-21T09:58:31.151Z,3.07
2022-11-21T10:00:58.707Z,3.03
2022-11-21T10:06:30.606Z,3.30
2022-11-21T10:09:08.497Z,3.34
2022-11-21T10:12:07.089Z,3.34
2022-11-21T10:14:48.232Z,3.34
2022-11-21T10:17:24.055Z,3.48
2022-11-21T10:20:15.947Z,3.63
2022-11-21T10:23:06.342Z,3.74
2022-11-21T10:25:38.637Z,3.81
2022-11-21T10:28:09.189Z,3.85
2022-11-21T10:30:37.008Z,3.96
2022-11-21T10:33:13.275Z,4.17
2022-11-21T10:35:45.122Z,4.31
2022-11-21T10:38:23.452Z,4.51
2022-11-21T10:40:55.926Z,4.65
2022-11-21T10:43:52.238Z,4.79
2022-11-21T10:46:19.407Z,4.78
2022-11-21T10:48:55.702Z,4.75
2022-11-21T10:51:37.768Z,4.65
2022-11-21T10:54:30.883Z,4.50
2022-11-21T10:57:07.038Z,4.21
2022-11-21T10:59:34.809Z,4.05
2022-11-21T11:02:03.757Z,4.01
2022-11-21T11:04:41.493Z,4.08
2022-11-21T11:07:24.444Z,4.00
2022-11-21T11:09:52.597Z,3.86
2022-11-21T11:13:01.602Z,3.72
2022-11-21T11:15:29.888Z,3.46
2022-11-21T11:18:05.809Z,3.24
2022-11-21T11:20:40.168Z,3.05
2022-11-21T11:23:27.978Z,2.94
2022-11-21T11:25:56.849Z,2.81
2022-11-21T11:28:25.541Z,2.67
2022-11-21T11:30:55.038Z,2.51
2022-11-21T11:33:34.016Z,2.33
2022-11-21T11:36:14.574Z,2.15
2022-11-21T11:38:44.236Z,2.08
2022-11-21T11:41:21.580Z,2.06
2022-11-21T11:44:18.376Z,2.02
2022-11-21T11:47:12.334Z,1.95
2022-11-21T11:49:56.882Z,1.86
2022-11-21T11:52:27.001Z,1.79
2022-11-21T11:54:59.953Z,1.74
2022-11-21T11:57:31.436Z,1.67
2022-11-21T12:00:08.435Z,1.64
2022-11-21T12:02:50.756Z,1.64
2022-11-21T12:05:25.175Z,1.64
2022-11-21T12:11:13.446Z,1.64
2022-11-21T12:13:43.394Z,1.64
2022-11-21T12:16:14.846Z,1.62
2022-11-21T12:18:52.360Z,1.61
2022-11-21T12:21:21.089Z,1.61
2022-11-21T12:23:50.512Z,1.63
2022-11-21T12:26:32.753Z,1.62
2022-11-21T12:29:15.335Z,1.60
2022-11-21T12:31:59.253Z,1.62
2022-11-21T12:34:40.942Z,1.63
2022-11-21T12:37:20.146Z,1.66
2022-11-21T12:40:11.603Z,1.70
2022-11-21T12:42:51.798Z,1.75
2022-11-21T12:45:33.549Z,1.77
2022-11-21T12:48:33.415Z,1.77
2022-11-21T12:51:34.817Z,1.78
2022-11-21T12:54:34.158Z,1.80
2022-11-21T12:57:10.486Z,1.81
2022-11-21T12:59:47.044Z,1.77
2022-11-21T13:02:20.251Z,1.78
2022-11-21T13:04:51.515Z,1.79
2022-11-21T13:07:20.173Z,1.80
2022-11-21T13:09:52.992Z,1.81
2022-11-21T13:12:28.819Z,1.83
2022-11-21T13:15:06.007Z,1.83
2022-11-21T13:17:51.730Z,1.77
2022-11-21T13:20:26.501Z,1.71
2022-11-21T13:22:59.316Z,1.64
2022-11-21T13:25:50.822Z,1.53
2022-11-21T13:28:33.566Z,1.44
2022-11-21T13:31:01.856Z,1.38
2022-11-21T13:33:54.053Z,1.32
2022-11-21T13:36:53.768Z,1.27
2022-11-21T13:39:32.553Z,1.23
2022-11-21T13:42:22.799Z,1.20
2022-11-21T13:44:50.960Z,1.15
2022-11-21T13:47:47.766Z,1.09
2022-11-21T13:50:29.690Z,1.07
2022-11-21T13:53:11.824Z,1.04
2022-11-21T13:55:49.701Z,1.03
2022-11-21T13:58:32.879Z,1.06
2022-11-21T14:01:24.206Z,1.10
2022-11-21T14:04:23.713Z,1.15
2022-11-21T14:06:50.933Z,1.17
2022-11-21T14:09:26.150Z,1.15
2022-11-21T14:11:56.047Z,1.12
2022-11-21T14:14:33.267Z,1.10
2022-11-21T14:17:20.649Z,1.08
2022-11-21T14:19:49.671Z,1.07
2022-11-21T14:22:34.622Z,1.08
2022-11-21T14:25:07.961Z,1.09
2022-11-21T14:27:44.960Z,1.11
2022-11-21T14:30:33.572Z,1.13
2022-11-21T14:33:23.398Z,1.11
2022-11-21T14:35:52.905Z,1.08
2022-11-21T14:38:20.886Z,1.05
2022-11-21T14:40:48.106Z,1.00
2022-11-21T14:43:32.529Z,0.98
2022-11-21T14:45:59.885Z,0.96
2022-11-21T14:48:31.640Z,0.97
2022-11-21T14:51:02.181Z,0.96
2022-11-21T14:53:30.777Z,0.94
2022-11-21T14:56:01.515Z,0.91
2022-11-21T14:58:30.177Z,0.89
2022-11-21T15:01:07.773Z,0.84
2022-11-21T15:03:37.291Z,0.79
2022-11-21T15:06:12.004Z,0.76
2022-11-21T15:11:36.143Z,0.78
2022-11-21T15:14:15.903Z,0.79
2022-11-21T15:16:44.020Z,0.79
2022-11-21T15:19:13.966Z,0.75
2022-11-21T15:21:47.331Z,0.71
2022-11-21T15:24:31.537Z,0.65
2022-11-21T15:26:58.872Z,0.62
2022-11-21T15:29:26.647Z,0.58
2022-11-21T15:35:01.939Z,0.51
2022-11-21T15:37:30.983Z,0.47
2022-11-21T15:39:59.335Z,0.42
2022-11-21T15:42:39.284Z,0.37
2022-11-21T15:45:25.471Z,0.33
2022-11-21T15:47:53.491Z,0.28
2022-11-21T15:50:23.962Z,0.27
2022-11-21T15:52:53.775Z,0.27
2022-11-21T15:55:23.751Z,0.27
2022-11-21T15:57:14.065Z,0.56
2022-11-21T15:57:51.105Z,0.28
2022-11-21T16:00:20.471Z,0.31
2022-11-21T16:02:47.791Z,0.32
2022-11-21T16:05:18.713Z,0.31
2022-11-21T16:07:46.131Z,0.30
2022-11-21T16:10:22.662Z,0.31
2022-11-21T16:12:54.461Z,0.30
2022-11-21T16:15:21.919Z,0.29
2022-11-21T16:17:49.076Z,0.27
2022-11-21T16:20:17.164Z,0.24
2022-11-21T16:22:47.799Z,0.19
2022-11-21T16:25:15.652Z,0.15
2022-11-21T16:27:43.594Z,0.13
2022-11-21T16:30:12.626Z,0.14
2022-11-21T16:32:40.306Z,0.13
2022-11-21T16:35:08.816Z,0.11
2022-11-21T16:37:37.007Z,0.09
2022-11-21T16:40:04.700Z,0.04
2022-11-21T16:42:32.143Z,0.00
2022-11-21T16:45:00.048Z,-0.04
2022-11-21T16:47:27.552Z,-0.05
2022-11-21T16:49:55.083Z,-0.04
2022-11-21T16:52:22.781Z,-0.05
2022-11-21T16:54:50.760Z,-0.07
2022-11-21T16:57:18.300Z,-0.10
2022-11-21T16:59:47.176Z,-0.13
2022-11-21T17:02:14.553Z,-0.14
2022-11-21T17:04:42.655Z,-0.15
2022-11-21T17:07:10.422Z,-0.16
2022-11-21T17:09:37.735Z,-0.14
2022-11-21T17:12:06.635Z,-0.13
2022-11-21T17:14:34.218Z,-0.11
2022-11-21T17:17:01.812Z,-0.12
2022-11-21T17:19:29.882Z,-0.12
2022-11-21T17:21:56.973Z,-0.11
2022-11-21T17:24:24.143Z,-0.08
2022-11-21T17:26:51.957Z,-0.08
2022-11-21T17:29:19.549Z,-0.04
2022-11-21T17:31:47.159Z,-0.02
2022-11-21T17:34:15.566Z,0.02
2022-11-21T17:36:42.643Z,-0.02
2022-11-21T17:39:09.999Z,-0.03
2022-11-21T17:41:38.188Z,-0.02
2022-11-21T17:44:05.576Z,0.01
2022-11-21T17:46:33.026Z,0.04
2022-11-21T17:49:00.865Z,0.08
2022-11-21T17:51:30.320Z,0.13
2022-11-21T17:53:57.505Z,0.16
2022-11-21T17:56:26.904Z,0.15
2022-11-21T17:58:55.042Z,0.13
2022-11-21T18:01:22.707Z,0.12
2022-11-21T18:03:56.060Z,0.10
2022-11-21T18:06:23.642Z,0.10
2022-11-21T18:08:52.996Z,0.13
2022-11-21T18:11:22.445Z,0.16
2022-11-21T18:13:50.149Z,0.18
2022-11-21T18:16:19.257Z,0.21
2022-11-21T18:18:46.910Z,0.21
2022-11-21T18:21:16.164Z,0.23
2022-11-21T18:23:44.763Z,0.29
2022-11-21T18:26:16.035Z,0.30
2022-11-21T18:28:43.668Z,0.31
2022-11-21T18:31:13.357Z,0.28
2022-11-21T18:33:41.818Z,0.28
2022-11-21T18:36:10.781Z,0.29
2022-11-21T18:38:48.721Z,0.29
2022-11-21T18:41:21.688Z,0.30
2022-11-21T18:43:53.467Z,0.30
2022-11-21T18:46:22.786Z,0.26
2022-11-21T18:49:08.267Z,0.23
2022-11-21T18:51:36.366Z,0.23
2022-11-21T18:54:07.349Z,0.23
2022-11-21T18:56:36.440Z,0.24
2022-11-21T18:59:06.016Z,0.25
2022-11-21T19:01:34.266Z,0.26
2022-11-21T19:04:02.086Z,0.28
2022-11-21T19:06:30.261Z,0.30
2022-11-21T19:08:59.209Z,0.31
2022-11-21T19:11:28.251Z,0.35
2022-11-21T19:13:56.146Z,0.39
2022-11-21T19:16:25.547Z,0.41
2022-11-21T19:21:42.961Z,0.38
2022-11-21T19:24:14.391Z,0.36
2022-11-21T19:26:42.177Z,0.38
2022-11-21T19:29:10.007Z,0.40
2022-11-21T19:31:44.261Z,0.45
2022-11-21T19:34:14.246Z,0.48
2022-11-21T19:36:41.965Z,0.50
2022-11-21T19:39:09.957Z,0.49
2022-11-21T19:41:38.682Z,0.47
2022-11-21T19:44:06.049Z,0.46
2022-11-21T19:46:36.068Z,0.46
2022-11-21T19:49:04.549Z,0.46
2022-11-21T19:51:34.256Z,0.48
2022-11-21T19:54:02.638Z,0.52
2022-11-21T19:56:30.809Z,0.55
2022-11-21T19:58:58.864Z,0.58
2022-11-21T20:01:28.304Z,0.58
2022-11-21T20:03:58.102Z,0.58
2022-11-21T20:06:27.916Z,0.58
2022-11-21T20:08:57.168Z,0.58
2022-11-21T20:11:25.104Z,0.60
2022-11-21T20:13:53.356Z,0.61
2022-11-21T20:16:23.245Z,0.63
2022-11-21T20:18:51.768Z,0.62
2022-11-21T20:21:20.246Z,0.62
2022-11-21T20:23:47.487Z,0.62
2022-11-21T20:26:15.867Z,0.60
2022-11-21T20:28:43.429Z,0.61
2022-11-21T20:31:13.073Z,0.59
2022-11-21T20:33:42.167Z,0.58
2022-11-21T20:36:14.343Z,0.57
2022-11-21T20:38:43.233Z,0.58
2022-11-21T20:41:10.952Z,0.59
2022-11-21T20:44:24.594Z,0.60
2022-11-21T20:46:24.617Z,0.57
2022-11-21T20:48:52.270Z,0.54
2022-11-21T20:53:06.345Z,0.52
2022-11-21T20:54:08.596Z,0.51
2022-11-21T20:56:38.109Z,0.51
2022-11-21T20:59:07.290Z,0.52
2022-11-21T21:01:35.230Z,0.54
2022-11-21T21:04:02.845Z,0.56
2022-11-21T21:06:30.316Z,0.59
2022-11-21T21:08:57.566Z,0.62
2022-11-21T21:11:50.339Z,0.64
2022-11-21T21:14:14.452Z,0.61
2022-11-21T21:16:41.975Z,0.58
2022-11-21T21:19:09.223Z,0.56
2022-11-21T21:21:37.063Z,0.54
2022-11-21T21:24:07.510Z,0.54
2022-11-21T21:26:41.767Z,0.56
2022-11-21T21:29:10.978Z,0.59
2022-11-21T21:31:38.229Z,0.61
2022-11-21T21:34:05.723Z,0.60
2022-11-21T21:36:33.772Z,0.55
2022-11-21T21:39:02.482Z,0.50
2022-11-21T21:41:32.360Z,0.48
2022-11-21T21:44:00.467Z,0.50
2022-11-21T21:46:29.224Z,0.50
2022-11-21T21:48:57.681Z,0.51
2022-11-21T21:51:26.939Z,0.53
2022-11-21T21:53:55.176Z,0.54
2022-11-21T21:56:23.558Z,0.53
2022-11-21T21:58:52.653Z,0.51
2022-11-21T22:01:22.035Z,0.49
2022-11-21T22:03:54.069Z,0.46
2022-11-21T22:06:22.295Z,0.44
2022-11-21T22:08:50.571Z,0.44
2022-11-21T22:11:20.111Z,0.47
2022-11-21T22:13:49.071Z,0.49
2022-11-21T22:16:16.847Z,0.48
2022-11-21T22:18:44.319Z,0.44
2022-11-21T22:21:19.431Z,0.41
2022-11-21T22:24:17.338Z,0.40
2022-11-21T22:26:35.242Z,0.43
2022-11-21T22:29:02.589Z,0.43
2022-11-21T22:31:32.821Z,0.44
2022-11-21T22:34:00.427Z,0.46
2022-11-21T22:36:28.651Z,0.48
2022-11-21T22:38:57.585Z,0.48
2022-11-21T22:41:26.489Z,0.45
2022-11-21T22:43:55.433Z,0.43
2022-11-21T22:46:23.293Z,0.43
2022-11-21T22:48:50.960Z,0.43
2022-11-21T22:51:20.200Z,0.44
2022-11-21T22:53:48.337Z,0.42
2022-11-21T22:56:16.610Z,0.41
2022-11-21T22:58:44.058Z,0.40
2022-11-21T23:01:13.060Z,0.41
2022-11-21T23:03:41.432Z,0.42
2022-11-21T23:06:11.240Z,0.43
2022-11-21T23:08:39.016Z,0.43
2022-11-21T23:11:08.266Z,0.44
2022-11-21T23:13:36.509Z,0.43
2022-11-21T23:16:04.352Z,0.43
2022-11-21T23:18:32.017Z,0.45
2022-11-21T23:20:59.480Z,0.47
2022-11-21T23:23:27.239Z,0.49
2022-11-21T23:25:55.030Z,0.48
2022-11-21T23:28:22.486Z,0.47
2022-11-21T23:30:50.675Z,0.46
2022-11-21T23:33:18.444Z,0.48
2022-11-21T23:35:47.390Z,0.49
2022-11-21T23:38:15.974Z,0.47
2022-11-21T23:40:45.386Z,0.46
2022-11-21T23:43:13.146Z,0.47
2022-11-21T23:45:40.604Z,0.47
2022-11-21T23:48:08.932Z,0.48
2022-11-21T23:50:36.790Z,0.48
2022-11-21T23:53:04.205Z,0.45
2022-11-21T23:55:31.667Z,0.43
2022-11-21T23:57:59.149Z,0.42
